Jard de Yabucoa, Puerto Rico
Current Conditions -  °F | °C
As of 6:53 AM on Wednesday 26 Nov 2014 (Local Time) from TJNR Reporting Station
Overcast Overcast  
Wind Chill: 79°   Ceiling: 6500
Heat Index: 82°   Visibility: 10mi
Dew Point: 74°   Wind: 6mph
Humidity: 84%   Direction: 120°ESE
Pressure: 30.04"   Gusts: NA
Location:  18.0547°N, 65.8738°W
Report Text: TJNR 261053Z AUTO 12005KT 10SM OVC065 26/23 A3004 RMK AO2 SLP171 T02610233 $
Loading
Personal Weather Stations






























Interactive Weather Map New forecast layout! Learn more

10-Day Weather Forecast

Advertisements
Track Severe Weather on mobile